Saint-Sauveur, Quebec

11:20 AM EST on February 12, 2016 (GMT -0500)
Saint-Sauveur, QUEBEC, CANADA | | Change Station
CLOSE
Current Station
Personal Weather Station
Location: Saint-Sauveur, QUéBEC
Elevation: 1107 ft
Nearby Weather Stations

Elev 1107 ft 45.87 °N, 74.17 °W | Updated 9 minutes ago

Mostly Cloudy
Mostly Cloudy
6.9 °F
Feels Like 7 °F
N
0.0
Wind Variable Wind from SSE
Gusts 6.0 mph

Today is forecast to be nearly the same temperature as yesterday.

Today
High -- | Low -- °F
--% Chance of Precip.
Yesterday
High -- | Low -- °F
Precip. -- in
Pressure 30.04 in
Visibility 45.0 miles
Clouds Few 6000 ft
Mostly Cloudy 10000 ft
Windchill 7 °F
Dew Point -3 °F
Humidity 65%
Rainfall 0.00 in
Snow Depth Not available.
7:04 AM 5:17 PM
Waxing Crescent, 21% visible
METAR CYMX 121600Z 09003KT 030V150 45SM FEW060 BKN100 M15/M21 A3001 RMK SC1AC6 SC TR SLP171
Pressure 30.04 in
Visibility 45.0 miles
Clouds Few 6000 ft
Mostly Cloudy 10000 ft
Windchill 7 °F
Dew Point -3 °F
Humidity 65%
Rainfall 0.00 in
Snow Depth Not available.
7:04 AM 5:17 PM
Waxing Crescent, 21% visible
METAR CYMX 121600Z 09003KT 030V150 45SM FEW060 BKN100 M15/M21 A3001 RMK SC1AC6 SC TR SLP171

10-Day Weather Forecast

Heavy Snow conditions possible.

Almanac

Astronomy

Feb. 12, 2016 Rise Set
Actual Time
Civil Twilight
Nautical Twilight
Astronomical Twilight
Moon
Length of Visible Light
Length of Day
Tomorrow will be .
, % of the Moon is Illuminated

Today's Extremes

Country Highs Country Lows

Community

WunderPhotos

Upload Photos

1,892,345 photos uploaded!

WunderBlog® & News

Nearby

Air Quality

  Air Quality AQ Index Pollutant
Not available.

Snow Depth

Station Depth Elevation

Earthquake Activity

City Distance Mag. Time & Date
Minimum magnitude displayed is 2.5.

Coastal Water Temperatures

Place Temperature

Stations

Nearby Weather Stations

Station Location Temp. Windchill Dew Point Humidity Wind Precip. Elev Updated Type
                   

Watches & Warnings

There are currently no watches in effect.